Time;durP1;ratioP1;P1;durP2;ratioP2;P2;SDS_P1;SDS_P2;PMS_P1;PMS_P2;Temp;Humidity;BMP_temperature;BMP_pressure;BME280_temperature;BME280_humidity;BME280_pressure;Samples;Min_cycle;Max_cycle;Signal;HPM_P1;HPM_P2
2022/07/29 00:01:58;;;;;;;3.80;3.27;;;;;;;22.00;55.15;98373.78;4998124;28;20580;-61
2022/07/29 00:04:25;;;;;;;4.23;3.00;;;;;;;21.89;55.54;98370.06;4998511;28;20226;-59
2022/07/29 00:06:51;;;;;;;3.37;2.80;;;;;;;21.90;55.72;98359.22;4996285;28;20214;-64
2022/07/29 00:09:18;;;;;;;3.83;3.10;;;;;;;21.97;55.49;98362.59;4998251;28;20257;-61
2022/07/29 00:11:46;;;;;;;6.37;3.53;;;;;;;21.90;56.38;98367.19;5001978;28;20223;-61
2022/07/29 00:14:13;;;;;;;8.77;4.67;;;;;;;21.79;55.55;98366.16;5001226;28;20235;-61
2022/07/29 00:16:40;;;;;;;5.93;4.30;;;;;;;21.64;56.09;98363.94;5000730;28;20221;-61
2022/07/29 00:19:06;;;;;;;5.90;4.00;;;;;;;21.53;56.14;98362.88;4997199;28;21056;-61
2022/07/29 00:21:33;;;;;;;4.57;4.10;;;;;;;21.41;56.74;98362.06;4997504;28;20231;-61
2022/07/29 00:24:00;;;;;;;6.57;4.17;;;;;;;21.32;57.41;98360.75;4998200;28;20233;-62
2022/07/29 00:26:31;;;;;;;5.30;4.03;;;;;;;21.24;58.00;98359.22;4999989;28;20310;-62
2022/07/29 00:28:59;;;;;;;7.50;4.40;;;;;;;21.18;58.53;98353.00;5000069;28;20580;-62
2022/07/29 00:31:27;;;;;;;4.63;4.00;;;;;;;21.09;58.41;98357.81;4999630;28;20208;-62
2022/07/29 00:33:54;;;;;;;5.17;4.20;;;;;;;21.03;58.73;98358.72;5000351;28;20214;-62
2022/07/29 00:36:20;;;;;;;5.17;4.13;;;;;;;20.97;58.72;98351.66;4995229;28;20302;-62
2022/07/29 00:38:47;;;;;;;5.37;4.10;;;;;;;20.90;59.01;98353.59;5002192;28;20790;-62
2022/07/29 00:41:14;;;;;;;8.77;4.30;;;;;;;20.87;59.04;98351.41;5001140;28;20653;-62
2022/07/29 00:43:41;;;;;;;6.30;4.20;;;;;;;20.83;59.40;98347.56;4999904;28;20253;-62
2022/07/29 00:46:09;;;;;;;5.43;4.30;;;;;;;20.84;60.40;98351.84;5000830;28;20211;-62
2022/07/29 00:48:36;;;;;;;4.77;4.17;;;;;;;20.82;60.55;98351.25;4997397;28;20507;-62
2022/07/29 00:51:05;;;;;;;5.30;4.03;;;;;;;20.77;60.14;98359.84;4996061;28;20218;-62
2022/07/29 00:53:50;;;;;;;4.33;3.60;;;;;;;20.67;61.05;98355.06;4996871;28;20230;-62
2022/07/29 00:56:17;;;;;;;8.23;4.43;;;;;;;20.65;60.88;98362.44;4993615;28;20221;-58
2022/07/29 00:58:44;;;;;;;7.93;4.53;;;;;;;20.53;61.12;98358.94;5002002;28;20805;-62
2022/07/29 01:01:12;;;;;;;6.07;4.53;;;;;;;20.42;61.13;98363.13;5001287;28;20223;-63
2022/07/29 01:03:39;;;;;;;6.03;4.73;;;;;;;20.33;61.26;98362.59;4999835;28;20232;-62
2022/07/29 01:06:06;;;;;;;8.87;4.47;;;;;;;20.27;61.53;98366.97;4998427;28;20224;-62
2022/07/29 01:08:33;;;;;;;9.53;4.60;;;;;;;20.18;61.76;98365.63;4997894;28;20232;-62
2022/07/29 01:11:02;;;;;;;9.00;4.83;;;;;;;20.05;62.19;98366.59;4999159;28;20664;-62
2022/07/29 01:13:31;;;;;;;6.53;4.37;;;;;;;19.98;62.94;98353.38;4995272;28;20237;-62
2022/07/29 01:16:04;;;;;;;5.50;4.50;;;;;;;19.90;63.23;98357.16;4999309;28;20217;-62
2022/07/29 01:18:35;;;;;;;7.63;4.67;;;;;;;19.78;63.41;98356.19;5001907;28;20321;-63
2022/07/29 01:21:28;;;;;;;5.17;4.33;;;;;;;19.69;64.02;98357.50;5005240;28;20224;-63
2022/07/29 01:24:20;;;;;;;5.53;4.67;;;;;;;19.61;64.63;98354.09;5006691;28;20212;-63
2022/07/29 01:26:48;;;;;;;5.10;4.57;;;;;;;19.54;65.09;98355.19;5009180;28;20189;-63
2022/07/29 01:29:27;;;;;;;5.50;4.90;;;;;;;19.49;65.48;98347.88;5009222;28;20599;-63
2022/07/29 01:31:59;;;;;;;8.13;5.00;;;;;;;19.39;66.34;98350.19;5007351;28;20185;-63
2022/07/29 01:34:31;;;;;;;7.07;4.68;;;;;;;19.30;66.42;98355.75;5006071;28;20446;-63
2022/07/29 01:37:09;;;;;;;9.17;5.30;;;;;;;19.22;66.85;98353.38;5006708;28;20196;-63
2022/07/29 01:39:39;;;;;;;7.17;4.97;;;;;;;19.22;66.96;98358.66;4983049;28;20219;-62
2022/07/29 01:42:13;;;;;;;9.47;5.47;;;;;;;19.19;67.32;98353.78;5006522;28;20205;-62
2022/07/29 01:44:49;;;;;;;7.47;5.00;;;;;;;19.18;67.93;98357.47;5005569;28;20554;-62
2022/07/29 01:47:21;;;;;;;7.17;5.13;;;;;;;19.12;68.04;98355.66;5009635;28;20202;-60
2022/07/29 01:49:52;;;;;;;7.23;4.93;;;;;;;19.06;68.64;98352.03;5005288;28;20233;-62
2022/07/29 01:52:24;;;;;;;9.33;5.07;;;;;;;18.97;68.91;98359.44;5010850;28;20190;-62
2022/07/29 01:54:56;;;;;;;5.87;4.80;;;;;;;18.92;68.92;98350.47;5008939;28;20210;-62
2022/07/29 01:57:29;;;;;;;5.23;4.73;;;;;;;18.86;69.27;98346.84;5008381;28;20199;-62
2022/07/29 01:59:59;;;;;;;5.97;4.90;;;;;;;18.83;70.10;98360.50;5010185;28;20581;-62
2022/07/29 02:02:28;;;;;;;7.43;5.87;;;;;;;18.78;70.31;98355.81;5007820;28;20293;-62
2022/07/29 02:04:57;;;;;;;7.67;5.00;;;;;;;18.81;71.13;98357.25;5008087;28;20240;-62
2022/07/29 02:07:28;;;;;;;7.37;5.20;;;;;;;18.78;71.12;98355.03;5010982;28;20249;-62
2022/07/29 02:10:15;;;;;;;5.60;5.00;;;;;;;18.72;71.38;98351.38;5008874;28;20815;-62
2022/07/29 02:12:44;;;;;;;5.83;5.23;;;;;;;18.68;71.36;98350.16;5007575;28;20249;-62
2022/07/29 02:15:13;;;;;;;6.20;5.60;;;;;;;18.61;71.55;98352.03;5008676;28;20702;-62
2022/07/29 02:17:44;;;;;;;7.30;5.40;;;;;;;18.63;72.06;98344.69;5010528;28;20205;-62
2022/07/29 02:20:12;;;;;;;6.43;5.20;;;;;;;18.58;72.45;98356.72;5011100;28;20257;-62
2022/07/29 02:22:41;;;;;;;6.13;5.53;;;;;;;18.53;72.79;98359.19;5010608;28;20231;-62
2022/07/29 02:25:10;;;;;;;5.80;5.10;;;;;;;18.48;72.69;98360.84;5010957;28;20529;-62
2022/07/29 02:27:39;;;;;;;7.23;5.30;;;;;;;18.45;72.50;98367.34;4993113;28;20217;-62
2022/07/29 02:30:09;;;;;;;5.97;5.37;;;;;;;18.43;73.29;98356.97;5006989;28;20192;-62
2022/07/29 02:32:40;;;;;;;5.33;4.83;;;;;;;18.34;72.71;98355.59;5009382;28;20686;-62
2022/07/29 02:35:09;;;;;;;7.77;5.23;;;;;;;18.27;73.03;98352.97;5014459;28;20206;-62
2022/07/29 02:37:38;;;;;;;7.13;5.67;;;;;;;18.18;73.33;98354.22;5014325;28;20201;-63
2022/07/29 02:40:07;;;;;;;5.87;5.27;;;;;;;18.13;73.80;98354.03;5014403;28;20608;-63
2022/07/29 02:42:37;;;;;;;6.33;5.47;;;;;;;18.17;74.81;98357.06;5014073;28;20210;-63
2022/07/29 02:45:05;;;;;;;7.50;5.20;;;;;;;18.13;74.74;98361.94;5014472;28;20199;-62
2022/07/29 02:47:37;;;;;;;6.20;5.27;;;;;;;18.11;74.63;98366.63;5013640;28;20205;-62
2022/07/29 02:50:09;;;;;;;6.77;5.03;;;;;;;18.11;75.44;98367.41;5014433;28;20214;-62
2022/07/29 02:52:40;;;;;;;6.63;5.00;;;;;;;18.08;74.89;98362.56;5010658;28;20649;-62
2022/07/29 02:55:15;;;;;;;7.37;5.37;;;;;;;18.10;75.38;98375.56;5011576;28;20193;-62
2022/07/29 02:57:45;;;;;;;9.63;5.90;;;;;;;18.10;76.50;98375.56;4996785;28;20216;-62
2022/07/29 03:00:13;;;;;;;6.43;5.53;;;;;;;18.09;76.48;98371.31;5014381;28;20642;-62
2022/07/29 03:02:44;;;;;;;6.37;5.20;;;;;;;18.03;76.29;98380.03;5013911;28;20213;-62
2022/07/29 03:05:16;;;;;;;7.07;5.80;;;;;;;17.98;77.28;98385.94;5014274;28;20212;-62
2022/07/29 03:07:53;;;;;;;10.93;5.90;;;;;;;17.97;77.96;98381.66;4995027;28;20682;-62
2022/07/29 03:10:21;;;;;;;7.50;5.57;;;;;;;17.90;77.50;98378.22;5012835;28;20201;-62
2022/07/29 03:12:49;;;;;;;8.30;5.47;;;;;;;17.86;77.38;98383.06;5013641;28;20189;-63
2022/07/29 03:15:16;;;;;;;7.23;6.00;;;;;;;17.87;78.85;98381.25;5013717;28;20197;-63
2022/07/29 03:17:44;;;;;;;6.83;6.10;;;;;;;17.80;78.50;98384.72;5013752;28;20252;-63
2022/07/29 03:20:14;;;;;;;7.67;6.13;;;;;;;17.78;78.30;98376.19;5013640;28;20193;-63
2022/07/29 03:22:43;;;;;;;6.77;6.10;;;;;;;17.75;79.21;98383.69;5013317;28;20224;-63
2022/07/29 03:25:10;;;;;;;6.70;5.93;;;;;;;17.69;79.36;98378.19;5013817;28;20197;-63
2022/07/29 03:27:37;;;;;;;7.37;5.70;;;;;;;17.66;79.51;98377.81;5013138;28;20202;-63
2022/07/29 03:30:05;;;;;;;8.37;5.80;;;;;;;17.64;80.34;98377.19;5013500;28;20216;-63
2022/07/29 03:32:32;;;;;;;7.87;5.80;;;;;;;17.54;80.18;98374.94;5013278;28;20642;-63
2022/07/29 03:34:59;;;;;;;7.83;6.23;;;;;;;17.51;81.03;98381.44;5013874;28;20204;-63
2022/07/29 03:37:27;;;;;;;7.00;6.30;;;;;;;17.47;80.79;98385.50;5013316;28;20673;-63
2022/07/29 03:39:56;;;;;;;8.67;6.23;;;;;;;17.45;81.29;98389.38;5013021;28;20204;-62
2022/07/29 03:42:27;;;;;;;6.77;5.53;;;;;;;17.43;80.57;98383.47;5013210;28;20312;-62
2022/07/29 03:44:56;;;;;;;7.90;5.70;;;;;;;17.39;80.52;98397.09;5008473;28;20208;-62
2022/07/29 03:47:26;;;;;;;7.67;5.90;;;;;;;17.35;80.68;98402.94;5009560;28;20200;-62
2022/07/29 03:49:57;;;;;;;8.80;5.83;;;;;;;17.35;81.16;98405.56;5013262;28;20666;-62
2022/07/29 03:52:24;;;;;;;6.87;5.43;;;;;;;17.34;80.93;98399.50;5013122;28;20251;-62
2022/07/29 03:54:53;;;;;;;8.13;5.70;;;;;;;17.30;81.43;98402.72;5013252;28;20197;-62
2022/07/29 03:57:24;;;;;;;6.40;5.80;;;;;;;17.23;81.19;98403.53;5013285;28;20203;-62
2022/07/29 03:59:52;;;;;;;8.40;6.30;;;;;;;17.23;82.56;98406.16;5010194;28;20219;-62
2022/07/29 04:02:19;;;;;;;6.43;5.80;;;;;;;17.22;82.08;98401.91;5012828;28;20679;-62
2022/07/29 04:04:46;;;;;;;6.30;5.70;;;;;;;17.20;81.88;98401.28;5011261;28;20204;-62
2022/07/29 04:07:13;;;;;;;6.20;5.60;;;;;;;17.15;81.88;98400.28;5013090;28;20192;-62
2022/07/29 04:09:40;;;;;;;9.87;6.93;;;;;;;17.17;82.61;98400.88;5013018;28;20699;-62
2022/07/29 04:12:09;;;;;;;6.43;5.30;;;;;;;17.13;82.38;98402.28;4993568;28;20639;-62
2022/07/29 04:14:36;;;;;;;7.40;6.07;;;;;;;17.11;82.75;98399.84;5012717;28;20200;-62
2022/07/29 04:17:05;;;;;;;8.13;5.37;;;;;;;17.13;82.63;98404.94;5012872;28;20247;-62
2022/07/29 04:19:32;;;;;;;6.80;5.87;;;;;;;17.16;82.92;98407.97;5012718;28;20274;-62
2022/07/29 04:22:00;;;;;;;6.10;5.50;;;;;;;17.14;82.88;98412.63;5012480;28;20191;-62
2022/07/29 04:24:27;;;;;;;5.73;5.10;;;;;;;17.17;82.92;98406.97;5012421;28;20224;-62
2022/07/29 04:26:54;;;;;;;6.87;5.40;;;;;;;17.17;82.57;98414.06;4990424;28;20245;-62
2022/07/29 04:29:22;;;;;;;6.23;5.63;;;;;;;17.20;82.66;98411.84;5011772;28;20214;-62
2022/07/29 04:31:48;;;;;;;6.43;5.57;;;;;;;17.26;82.35;98415.50;5012355;28;20192;-62
2022/07/29 04:34:15;;;;;;;7.70;5.30;;;;;;;17.33;81.91;98418.97;5012638;28;20203;-62
2022/07/29 04:36:42;;;;;;;6.00;5.40;;;;;;;17.37;81.86;98414.09;5009422;28;20207;-62
2022/07/29 04:39:09;;;;;;;6.53;5.20;;;;;;;17.45;81.99;98421.03;5012127;28;20220;-63
2022/07/29 04:41:36;;;;;;;5.60;5.10;;;;;;;17.47;81.61;98417.16;5008530;28;20663;-63
2022/07/29 04:44:05;;;;;;;6.80;5.40;;;;;;;17.54;81.40;98420.63;5008344;28;20300;-62
2022/07/29 04:46:33;;;;;;;6.17;5.53;;;;;;;17.56;81.96;98418.59;5008856;28;20720;-62
2022/07/29 04:49:00;;;;;;;9.20;5.13;;;;;;;17.62;81.77;98422.25;5012150;28;20230;-62
2022/07/29 04:51:27;;;;;;;6.60;5.77;;;;;;;17.70;81.61;98418.63;5012601;28;20189;-62
2022/07/29 04:53:53;;;;;;;6.20;5.60;;;;;;;17.76;81.92;98416.97;5011997;28;20201;-62
2022/07/29 04:56:20;;;;;;;6.57;5.87;;;;;;;17.88;81.23;98425.94;5012211;28;20688;-62
2022/07/29 04:58:47;;;;;;;7.27;5.27;;;;;;;17.94;81.30;98429.59;5012129;28;20216;-62
2022/07/29 05:01:14;;;;;;;11.43;5.60;;;;;;;18.02;80.95;98429.41;5012134;28;20553;-62
2022/07/29 05:03:43;;;;;;;7.27;5.70;;;;;;;18.05;80.89;98438.75;5011767;28;20292;-62
2022/07/29 05:06:10;;;;;;;5.90;5.30;;;;;;;18.12;79.79;98437.72;5012015;28;20191;-63
2022/07/29 05:08:37;;;;;;;7.60;5.77;;;;;;;18.18;79.51;98448.50;5002089;28;20227;-63
2022/07/29 05:11:04;;;;;;;8.70;5.57;;;;;;;18.21;79.94;98440.97;4994465;28;20213;-62
2022/07/29 05:13:31;;;;;;;7.67;5.63;;;;;;;18.27;79.59;98449.91;5011735;28;20209;-62
2022/07/29 05:15:58;;;;;;;8.67;5.17;;;;;;;18.31;79.08;98448.47;5012136;28;20208;-62
2022/07/29 05:18:25;;;;;;;9.23;5.50;;;;;;;18.32;78.83;98446.66;5011130;28;20256;-62
2022/07/29 05:20:53;;;;;;;6.73;5.83;;;;;;;18.34;78.25;98444.63;5011765;28;20662;-62
2022/07/29 05:23:20;;;;;;;6.63;5.90;;;;;;;18.37;78.11;98450.28;5009131;28;20211;-62
2022/07/29 05:25:47;;;;;;;9.70;6.13;;;;;;;18.44;78.21;98453.75;5012017;28;20202;-62
2022/07/29 05:28:14;;;;;;;7.00;6.30;;;;;;;18.54;77.69;98453.34;5011769;28;20210;-63
2022/07/29 05:30:42;;;;;;;8.90;6.30;;;;;;;18.64;77.32;98452.06;5011900;28;20286;-63
2022/07/29 05:33:27;;;;;;;13.33;6.50;;;;;;;18.76;76.78;98452.25;5008126;28;20212;-63
2022/07/29 05:35:55;;;;;;;9.77;7.65;;;;;;;18.91;79.01;98459.91;5006991;28;20493;-63
2022/07/29 05:38:21;;;;;;;8.83;7.47;;;;;;;18.96;79.10;98468.91;5008120;28;20214;-63
2022/07/29 05:40:48;;;;;;;10.27;8.67;;;;;;;18.90;80.21;98464.41;5010355;28;20462;-63
2022/07/29 05:43:15;;;;;;;9.23;8.07;;;;;;;19.06;78.99;98470.28;5011544;28;20211;-63
2022/07/29 05:45:42;;;;;;;9.20;7.77;;;;;;;19.08;79.88;98470.88;5011662;28;20205;-63
2022/07/29 05:48:08;;;;;;;10.03;7.53;;;;;;;19.15;79.69;98472.47;5011534;28;20224;-63
2022/07/29 05:50:35;;;;;;;9.60;7.50;;;;;;;19.29;78.89;98478.50;5011651;28;20672;-63
2022/07/29 05:53:03;;;;;;;9.07;6.83;;;;;;;19.43;77.89;98475.78;5010095;28;20209;-63
2022/07/29 05:55:30;;;;;;;7.87;7.17;;;;;;;19.60;77.45;98484.84;5011696;28;20258;-63
2022/07/29 05:57:57;;;;;;;7.83;6.40;;;;;;;19.73;76.26;98483.16;5011664;28;20665;-63
2022/07/29 06:00:24;;;;;;;8.00;6.13;;;;;;;19.95;75.72;98483.63;5011400;28;20195;-63
2022/07/29 06:02:51;;;;;;;11.23;7.23;;;;;;;20.14;73.96;98489.00;5011310;28;20225;-63
2022/07/29 06:05:18;;;;;;;9.27;5.90;;;;;;;20.34;69.59;98492.28;5010974;28;20275;-63
2022/07/29 06:07:45;;;;;;;7.03;6.27;;;;;;;20.54;69.34;98498.41;5012268;28;20195;-63
2022/07/29 06:10:13;;;;;;;6.77;6.07;;;;;;;20.73;68.31;98502.72;5013153;28;20713;-63
2022/07/29 06:12:40;;;;;;;10.70;6.30;;;;;;;20.75;67.31;98505.13;5014908;28;20203;-63
2022/07/29 06:15:07;;;;;;;7.47;6.27;;;;;;;20.79;67.48;98507.16;5015280;28;20199;-63
2022/07/29 06:17:34;;;;;;;9.47;6.57;;;;;;;20.84;64.86;98503.03;5015295;28;20200;-63
2022/07/29 06:20:01;;;;;;;9.47;5.53;;;;;;;20.98;64.02;98501.88;5015134;28;20212;-63
2022/07/29 06:22:28;;;;;;;6.90;5.77;;;;;;;21.09;63.76;98500.31;5014846;28;20195;-63
2022/07/29 06:24:55;;;;;;;8.73;5.93;;;;;;;21.12;64.27;98510.47;5015265;28;20196;-63
2022/07/29 06:27:23;;;;;;;7.50;5.80;;;;;;;21.31;63.73;98510.47;5014288;28;20561;-63
2022/07/29 06:30:09;;;;;;;6.77;5.67;;;;;;;21.46;63.16;98516.19;5011358;28;20201;-63
2022/07/29 06:32:36;;;;;;;7.13;6.33;;;;;;;21.64;62.40;98507.38;5012735;28;20203;-63
2022/07/29 06:35:04;;;;;;;7.13;6.17;;;;;;;21.92;61.64;98508.63;5011174;28;20207;-63
2022/07/29 06:37:31;;;;;;;6.37;5.73;;;;;;;22.25;59.90;98507.28;5012434;28;20200;-63
2022/07/29 06:42:42;;;;;;;8.57;5.37;;;;;;;22.50;57.07;98514.22;5013698;28;20201;-63
2022/07/29 06:45:11;;;;;;;6.63;5.67;;;;;;;22.55;57.91;98510.91;5014885;28;20719;-63
2022/07/29 06:47:38;;;;;;;9.30;5.53;;;;;;;22.47;58.09;98513.91;5013665;28;20204;-63
2022/07/29 06:50:06;;;;;;;8.00;4.63;;;;;;;22.56;55.44;98515.97;5014672;28;20302;-63
2022/07/29 06:52:32;;;;;;;7.87;4.33;;;;;;;22.54;54.77;98520.72;5013773;28;20200;-63
2022/07/29 06:54:59;;;;;;;6.03;4.60;;;;;;;22.74;53.97;98522.19;5014156;28;20545;-63
2022/07/29 06:57:26;;;;;;;5.80;4.87;;;;;;;22.92;53.79;98520.44;5000071;28;20203;-63
2022/07/29 06:59:54;;;;;;;8.67;4.17;;;;;;;23.12;52.06;98523.53;5014245;28;20205;-63
2022/07/29 07:02:21;;;;;;;8.00;3.87;;;;;;;23.33;51.79;98520.47;5014114;28;20279;-63
2022/07/29 07:04:48;;;;;;;7.67;4.27;;;;;;;23.45;51.98;98521.25;5014164;28;20257;-63
2022/07/29 07:07:14;;;;;;;9.40;4.17;;;;;;;23.44;50.63;98523.09;5014310;28;20194;-63
2022/07/29 07:09:41;;;;;;;5.43;3.63;;;;;;;23.48;51.37;98527.94;5014011;28;20230;-63
2022/07/29 07:12:08;;;;;;;6.90;3.90;;;;;;;23.54;50.72;98532.31;5014060;28;20189;-63
2022/07/29 07:14:35;;;;;;;5.10;3.97;;;;;;;23.51;50.17;98522.16;5013995;28;20194;-63
2022/07/29 07:17:04;;;;;;;10.60;4.40;;;;;;;23.38;51.45;98534.69;5012785;28;20255;-63
2022/07/29 07:19:30;;;;;;;7.27;4.73;;;;;;;23.27;51.84;98531.03;5013899;28;20729;-63
2022/07/29 07:21:57;;;;;;;9.93;4.20;;;;;;;23.51;52.30;98535.47;5013842;28;20206;-63
2022/07/29 07:24:25;;;;;;;7.67;4.10;;;;;;;23.65;51.33;98536.78;5013856;28;20220;-63
2022/07/29 07:26:51;;;;;;;5.87;4.10;;;;;;;23.73;49.00;98541.75;5010207;28;20196;-63
2022/07/29 07:29:18;;;;;;;6.47;4.30;;;;;;;23.30;48.14;98535.09;5013884;28;20252;-63
2022/07/29 07:31:45;;;;;;;4.27;3.43;;;;;;;23.32;48.61;98534.84;5013716;28;20192;-63
2022/07/29 07:34:13;;;;;;;6.03;3.90;;;;;;;23.44;48.33;98539.06;5013821;28;20657;-63
2022/07/29 07:36:40;;;;;;;8.23;3.70;;;;;;;23.74;49.14;98545.22;5013710;28;20193;-63
2022/07/29 07:39:07;;;;;;;7.83;4.10;;;;;;;24.03;47.65;98540.69;5013349;28;20212;-63
2022/07/29 07:41:33;;;;;;;11.47;4.20;;;;;;;24.24;46.94;98538.34;5012622;28;20196;-63
2022/07/29 07:44:00;;;;;;;5.67;3.63;;;;;;;24.69;45.59;98541.94;5013434;28;20222;-63
2022/07/29 07:46:27;;;;;;;8.00;3.60;;;;;;;24.98;45.64;98547.16;5013117;28;20714;-63
2022/07/29 07:48:54;;;;;;;6.13;3.60;;;;;;;25.19;45.53;98539.38;5013181;28;20211;-63
2022/07/29 07:51:22;;;;;;;5.50;4.20;;;;;;;25.06;44.96;98549.38;5013126;28;20282;-63
2022/07/29 07:53:50;;;;;;;5.37;3.90;;;;;;;25.12;44.99;98544.94;5013147;28;20200;-63
2022/07/29 07:56:16;;;;;;;8.87;3.87;;;;;;;24.83;45.55;98549.63;5011958;28;20646;-63
2022/07/29 07:58:43;;;;;;;8.43;4.30;;;;;;;24.76;45.70;98553.28;5013050;28;20219;-63
2022/07/29 08:01:10;;;;;;;8.93;4.22;;;;;;;24.48;47.04;98551.50;5013153;28;20198;-63
2022/07/29 08:03:38;;;;;;;6.80;4.13;;;;;;;24.39;46.50;98553.78;5012844;28;20222;-63
2022/07/29 08:06:06;;;;;;;7.07;4.10;;;;;;;24.38;47.81;98556.72;5013173;28;20215;-63
2022/07/29 08:08:34;;;;;;;7.87;4.37;;;;;;;24.54;47.57;98558.53;5005143;28;20265;-63
2022/07/29 08:11:03;;;;;;;6.27;4.33;;;;;;;24.68;47.73;98551.00;5012788;28;20194;-63
2022/07/29 08:13:30;;;;;;;9.07;4.30;;;;;;;24.71;47.49;98557.69;5012547;28;20843;-63
2022/07/29 08:15:59;;;;;;;8.00;4.50;;;;;;;24.54;47.88;98555.84;5012936;28;20229;-63
2022/07/29 08:18:26;;;;;;;10.57;4.47;;;;;;;24.98;47.69;98560.50;5012668;28;20233;-63
2022/07/29 08:20:53;;;;;;;6.67;4.37;;;;;;;25.42;45.75;98570.41;5012861;28;20242;-63
2022/07/29 08:23:20;;;;;;;4.95;4.22;;;;;;;25.35;45.95;98564.44;4994593;28;20206;-63
2022/07/29 08:25:48;;;;;;;8.07;4.20;;;;;;;25.43;45.53;98568.53;5012707;28;20677;-63
2022/07/29 08:28:15;;;;;;;12.17;4.93;;;;;;;25.09;46.36;98557.97;5011117;28;20216;-63
2022/07/29 08:30:42;;;;;;;4.50;4.10;;;;;;;25.49;46.29;98570.22;5011611;28;20209;-63
2022/07/29 08:33:08;;;;;;;9.33;4.23;;;;;;;25.50;46.43;98566.50;5012251;28;20201;-63
2022/07/29 08:35:35;;;;;;;6.47;3.87;;;;;;;25.69;45.74;98566.94;5012519;28;20204;-63
2022/07/29 08:38:03;;;;;;;8.10;4.60;;;;;;;25.40;45.91;98571.69;5012401;28;20216;-63
2022/07/29 08:40:30;;;;;;;7.53;4.03;;;;;;;25.46;46.90;98581.41;5012055;28;20200;-63
2022/07/29 08:42:58;;;;;;;4.43;4.00;;;;;;;25.49;46.41;98579.03;5012348;28;20226;-63
2022/07/29 08:45:26;;;;;;;8.73;4.73;;;;;;;25.31;46.70;98579.34;5012237;28;20273;-63
2022/07/29 08:47:53;;;;;;;5.97;4.40;;;;;;;25.39;46.42;98575.41;5012037;28;20187;-63
2022/07/29 08:50:20;;;;;;;8.77;4.80;;;;;;;25.27;46.12;98571.00;5012260;28;20230;-63
2022/07/29 08:52:49;;;;;;;6.93;4.30;;;;;;;25.13;46.90;98562.56;5011891;28;20206;-63
2022/07/29 08:55:16;;;;;;;8.20;4.23;;;;;;;25.28;48.45;98566.50;5009593;28;20192;-63
2022/07/29 08:57:44;;;;;;;8.03;4.30;;;;;;;25.31;46.84;98574.81;4994372;28;20212;-63
2022/07/29 09:00:12;;;;;;;8.70;4.33;;;;;;;25.27;46.44;98575.56;4991751;28;20218;-63
2022/07/29 09:02:45;;;;;;;8.27;4.70;;;;;;;25.17;46.69;98579.72;4990911;28;20188;-62
2022/07/29 09:05:12;;;;;;;6.83;4.20;;;;;;;25.33;44.61;98574.56;5007428;28;20214;-62
2022/07/29 09:07:41;;;;;;;8.37;4.50;;;;;;;25.33;45.50;98579.91;5008956;28;20192;-60
2022/07/29 09:10:09;;;;;;;8.20;4.53;;;;;;;25.24;47.68;98579.53;5010399;28;20206;-61
2022/07/29 09:12:36;;;;;;;6.55;4.05;;;;;;;25.37;45.51;98589.03;5011381;28;20194;-61
2022/07/29 09:15:03;;;;;;;6.00;3.60;;;;;;;25.37;45.55;98573.00;5010286;28;20189;-60
2022/07/29 09:17:46;;;;;;;9.80;4.50;;;;;;;25.37;45.41;98581.03;4993350;28;20193;-60
2022/07/29 09:23:12;;;;;;;10.30;4.10;;;;;;;25.42;46.85;98586.44;5010368;28;20221;-60
2022/07/29 09:25:40;;;;;;;4.70;3.60;;;;;;;25.61;44.67;98588.78;5011104;28;20221;-60
2022/07/29 09:28:08;;;;;;;7.63;3.80;;;;;;;25.50;43.72;98582.53;5007880;28;20942;-60
2022/07/29 09:30:36;;;;;;;7.57;4.30;;;;;;;25.55;43.95;98584.44;5009671;28;20203;-60
2022/07/29 09:33:04;;;;;;;9.70;3.87;;;;;;;25.61;44.48;98580.75;5011237;28;20197;-60
2022/07/29 09:35:32;;;;;;;6.60;4.10;;;;;;;25.85;44.00;98585.81;5011062;28;20195;-60
2022/07/29 09:38:10;;;;;;;6.60;4.13;;;;;;;25.81;43.23;98582.03;5011552;28;20202;-60
2022/07/29 09:40:37;;;;;;;8.27;3.97;;;;;;;25.87;43.00;98583.72;5011520;28;20201;-60
2022/07/29 09:43:12;;;;;;;5.53;3.20;;;;;;;25.78;42.62;98586.03;5012373;28;20219;-60
2022/07/29 09:45:38;;;;;;;7.27;3.87;;;;;;;25.64;42.64;98580.25;5015696;28;20209;-60
2022/07/29 09:48:17;;;;;;;5.00;3.50;;;;;;;25.84;40.78;98587.72;5015566;28;20272;-60
2022/07/29 09:51:04;;;;;;;4.70;3.53;;;;;;;25.66;42.32;98580.03;5015709;28;20376;-61
2022/07/29 09:53:33;;;;;;;6.43;3.47;;;;;;;25.60;42.31;98579.16;5011226;28;20205;-59
2022/07/29 09:56:00;;;;;;;7.10;3.70;;;;;;;25.85;41.88;98586.66;5011185;28;20255;-60
2022/07/29 09:58:28;;;;;;;9.67;3.37;;;;;;;25.69;41.42;98582.19;5014847;28;20622;-61
2022/07/29 10:00:55;;;;;;;4.57;3.30;;;;;;;26.06;40.85;98586.81;5013943;28;20209;-61
2022/07/29 10:03:24;;;;;;;3.83;3.00;;;;;;;26.02;40.99;98583.03;5014864;28;20197;-59
2022/07/29 10:06:06;;;;;;;5.30;2.97;;;;;;;26.57;40.27;98577.63;5014126;28;20211;-62
2022/07/29 10:08:33;;;;;;;6.05;3.50;;;;;;;26.67;40.13;98569.66;5014456;28;20232;-59
2022/07/29 10:11:10;;;;;;;6.57;3.30;;;;;;;26.72;39.51;98564.34;5014950;28;20200;-59
2022/07/29 10:13:38;;;;;;;7.63;3.60;;;;;;;26.49;40.02;98568.22;5012828;28;20199;-61
2022/07/29 10:16:06;;;;;;;9.45;3.38;;;;;;;26.37;40.72;98555.00;5014878;28;20198;-62
2022/07/29 10:18:35;;;;;;;4.83;3.60;;;;;;;26.42;41.26;98555.03;5013496;28;20737;-60
2022/07/29 10:21:02;;;;;;;10.23;4.23;;;;;;;26.48;40.70;98548.66;5014977;28;20195;-60
2022/07/29 10:23:29;;;;;;;7.25;4.03;;;;;;;26.80;41.50;98549.63;5005466;28;20287;-60
2022/07/29 10:25:56;;;;;;;10.15;3.13;;;;;;;27.01;40.84;98539.06;5015020;28;20211;-60
2022/07/29 10:28:23;;;;;;;7.23;3.60;;;;;;;27.04;39.91;98539.34;5014081;28;20219;-60
2022/07/29 10:30:52;;;;;;;4.93;3.30;;;;;;;27.54;40.00;98539.81;5014407;28;20192;-61
2022/07/29 10:33:33;;;;;;;6.63;3.05;;;;;;;27.41;38.13;98549.13;5013745;28;20538;-61
2022/07/29 10:36:14;;;;;;;5.73;3.00;;;;;;;27.16;38.29;98546.34;5014041;28;20327;-62
2022/07/29 10:38:46;;;;;;;5.28;2.40;;;;;;;27.28;37.27;98549.59;5012990;28;20217;-61
2022/07/29 10:41:42;;;;;;;2.83;2.58;;;;;;;27.16;35.90;98541.00;5014546;28;20195;-61
2022/07/29 10:44:13;;;;;;;6.60;3.03;;;;;;;26.87;36.14;98544.09;5012984;28;20609;-61
2022/07/29 10:46:41;;;;;;;7.85;2.83;;;;;;;26.72;36.79;98545.59;5014347;28;20564;-61
2022/07/29 10:49:14;;;;;;;4.03;2.80;;;;;;;26.51;36.92;98545.47;5014568;28;20216;-61
2022/07/29 10:52:04;;;;;;;5.20;2.78;;;;;;;26.21;37.83;98530.81;5014446;28;20195;-61
2022/07/29 10:54:49;;;;;;;5.10;2.92;;;;;;;26.35;38.55;98533.88;5013434;28;20253;-61
2022/07/29 10:57:28;;;;;;;7.27;3.20;;;;;;;26.16;37.57;98546.81;5011786;28;20203;-61
2022/07/29 11:00:27;;;;;;;5.03;2.73;;;;;;;26.47;37.86;98557.75;5013988;28;20240;-61
2022/07/29 11:02:56;;;;;;;5.50;3.10;;;;;;;26.44;37.03;98552.13;5013616;28;20198;-61
2022/07/29 11:05:23;;;;;;;6.63;3.00;;;;;;;26.75;36.10;98545.09;5013890;28;20214;-61
2022/07/29 11:08:26;;;;;;;8.20;3.20;;;;;;;26.97;35.36;98546.81;5010124;28;20195;-61
2022/07/29 11:11:36;;;;;;;6.95;3.60;;;;;;;26.57;36.38;98546.28;5011030;28;20194;-61
2022/07/29 11:14:04;;;;;;;5.03;2.92;;;;;;;27.00;36.03;98556.19;5011464;28;20212;-61
2022/07/29 11:17:02;;;;;;;5.30;3.20;;;;;;;27.35;36.37;98549.38;5014072;28;20205;-61
2022/07/29 11:19:30;;;;;;;7.03;2.83;;;;;;;27.75;35.42;98555.91;5013378;28;20222;-61
2022/07/29 11:21:57;;;;;;;4.00;2.80;;;;;;;28.01;34.74;98542.53;5013900;28;20646;-61
2022/07/29 11:24:28;;;;;;;5.60;2.90;;;;;;;28.11;34.78;98545.22;5013915;28;20202;-61
2022/07/29 11:27:09;;;;;;;7.90;2.80;;;;;;;28.37;34.40;98547.94;5010140;28;20199;-62
2022/07/29 11:29:39;;;;;;;4.53;3.20;;;;;;;28.46;35.37;98550.84;5011780;28;20216;-61
2022/07/29 11:32:12;;;;;;;4.40;3.10;;;;;;;28.72;34.69;98554.28;5013713;28;20207;-60
2022/07/29 11:34:40;;;;;;;5.85;2.83;;;;;;;28.85;33.25;98549.44;5014016;28;20199;-60
2022/07/29 11:37:23;;;;;;;4.50;2.40;;;;;;;28.56;32.99;98542.78;5013655;28;20596;-60
2022/07/29 11:40:11;;;;;;;2.30;2.03;;;;;;;28.71;31.48;98550.00;5009740;28;20227;-60
2022/07/29 11:42:40;;;;;;;4.50;1.92;;;;;;;28.71;31.92;98546.50;5012365;28;20204;-60
2022/07/29 11:45:09;;;;;;;3.88;1.80;;;;;;;28.63;32.42;98555.91;5012053;28;20720;-60
2022/07/29 11:47:38;;;;;;;5.47;2.28;;;;;;;28.63;32.14;98552.44;4995610;28;20205;-60
2022/07/29 11:50:07;;;;;;;4.60;1.70;;;;;;;28.58;31.67;98558.63;5013314;28;20208;-60
2022/07/29 11:52:36;;;;;;;2.53;1.50;;;;;;;28.41;30.63;98558.91;5013011;28;20199;-60